sensor_id;sensor_type;location;lat;lon;timestamp;P1;durP1;ratioP1;P2;durP2;ratioP2
55575;SDS011;41437;45.478;9.116;2023-11-19T00:00:59;22.63;;;14.38;;
55575;SDS011;41437;45.478;9.116;2023-11-19T00:04:01;24.63;;;15.00;;
55575;SDS011;41437;45.478;9.116;2023-11-19T00:07:04;24.58;;;14.98;;
55575;SDS011;41437;45.478;9.116;2023-11-19T00:10:08;24.63;;;14.30;;
55575;SDS011;41437;45.478;9.116;2023-11-19T00:16:12;22.20;;;15.45;;
55575;SDS011;41437;45.478;9.116;2023-11-19T00:19:14;21.83;;;14.57;;
55575;SDS011;41437;45.478;9.116;2023-11-19T00:22:16;26.20;;;14.48;;
55575;SDS011;41437;45.478;9.116;2023-11-19T00:25:20;24.83;;;14.90;;
55575;SDS011;41437;45.478;9.116;2023-11-19T00:28:22;24.00;;;14.40;;
55575;SDS011;41437;45.478;9.116;2023-11-19T00:31:24;24.88;;;14.68;;
55575;SDS011;41437;45.478;9.116;2023-11-19T00:34:27;21.90;;;13.80;;
55575;SDS011;41437;45.478;9.116;2023-11-19T00:37:29;22.90;;;14.55;;
55575;SDS011;41437;45.478;9.116;2023-11-19T00:40:32;24.30;;;16.35;;
55575;SDS011;41437;45.478;9.116;2023-11-19T00:43:34;25.27;;;15.60;;
55575;SDS011;41437;45.478;9.116;2023-11-19T00:46:36;22.45;;;15.30;;
55575;SDS011;41437;45.478;9.116;2023-11-19T00:49:37;23.10;;;15.90;;
55575;SDS011;41437;45.478;9.116;2023-11-19T00:52:39;25.17;;;15.52;;
55575;SDS011;41437;45.478;9.116;2023-11-19T00:55:42;26.98;;;15.55;;
55575;SDS011;41437;45.478;9.116;2023-11-19T00:58:44;24.30;;;15.30;;
55575;SDS011;41437;45.478;9.116;2023-11-19T01:01:46;26.38;;;15.60;;
55575;SDS011;41437;45.478;9.116;2023-11-19T01:04:49;25.13;;;15.68;;
55575;SDS011;41437;45.478;9.116;2023-11-19T01:07:50;22.50;;;14.90;;
55575;SDS011;41437;45.478;9.116;2023-11-19T01:10:55;25.13;;;16.05;;
55575;SDS011;41437;45.478;9.116;2023-11-19T01:13:56;26.40;;;14.93;;
55575;SDS011;41437;45.478;9.116;2023-11-19T01:16:58;23.70;;;15.27;;
55575;SDS011;41437;45.478;9.116;2023-11-19T01:20:00;23.48;;;15.25;;
55575;SDS011;41437;45.478;9.116;2023-11-19T01:23:01;27.00;;;14.95;;
55575;SDS011;41437;45.478;9.116;2023-11-19T01:26:04;26.65;;;15.02;;
55575;SDS011;41437;45.478;9.116;2023-11-19T01:29:06;23.02;;;15.77;;
55575;SDS011;41437;45.478;9.116;2023-11-19T01:32:08;27.27;;;14.75;;
55575;SDS011;41437;45.478;9.116;2023-11-19T01:35:09;23.33;;;15.27;;
55575;SDS011;41437;45.478;9.116;2023-11-19T01:38:11;22.88;;;15.18;;
55575;SDS011;41437;45.478;9.116;2023-11-19T01:41:14;24.95;;;15.30;;
55575;SDS011;41437;45.478;9.116;2023-11-19T01:44:16;24.50;;;15.82;;
55575;SDS011;41437;45.478;9.116;2023-11-19T01:47:17;24.92;;;15.10;;
55575;SDS011;41437;45.478;9.116;2023-11-19T01:50:20;25.75;;;15.20;;
55575;SDS011;41437;45.478;9.116;2023-11-19T01:53:22;24.20;;;15.98;;
55575;SDS011;41437;45.478;9.116;2023-11-19T01:56:25;26.63;;;16.10;;
55575;SDS011;41437;45.478;9.116;2023-11-19T01:59:28;22.30;;;14.77;;
55575;SDS011;41437;45.478;9.116;2023-11-19T02:02:29;23.63;;;15.05;;
55575;SDS011;41437;45.478;9.116;2023-11-19T02:05:31;24.08;;;16.45;;
55575;SDS011;41437;45.478;9.116;2023-11-19T02:08:33;29.73;;;17.45;;
55575;SDS011;41437;45.478;9.116;2023-11-19T02:11:36;25.75;;;16.40;;
55575;SDS011;41437;45.478;9.116;2023-11-19T02:14:40;23.92;;;15.80;;
55575;SDS011;41437;45.478;9.116;2023-11-19T02:17:42;24.20;;;16.77;;
55575;SDS011;41437;45.478;9.116;2023-11-19T02:20:44;23.98;;;16.73;;
55575;SDS011;41437;45.478;9.116;2023-11-19T02:23:45;26.38;;;16.27;;
55575;SDS011;41437;45.478;9.116;2023-11-19T02:26:50;26.02;;;16.33;;
55575;SDS011;41437;45.478;9.116;2023-11-19T02:30:00;25.98;;;16.80;;
55575;SDS011;41437;45.478;9.116;2023-11-19T02:33:03;24.35;;;15.85;;
55575;SDS011;41437;45.478;9.116;2023-11-19T02:36:06;22.67;;;16.27;;
55575;SDS011;41437;45.478;9.116;2023-11-19T02:39:08;24.27;;;16.50;;
55575;SDS011;41437;45.478;9.116;2023-11-19T02:45:15;28.50;;;16.67;;
55575;SDS011;41437;45.478;9.116;2023-11-19T02:48:17;24.30;;;17.00;;
55575;SDS011;41437;45.478;9.116;2023-11-19T02:51:19;24.27;;;16.30;;
55575;SDS011;41437;45.478;9.116;2023-11-19T02:54:20;22.17;;;16.95;;
55575;SDS011;41437;45.478;9.116;2023-11-19T02:57:30;25.38;;;17.65;;
55575;SDS011;41437;45.478;9.116;2023-11-19T03:00:33;26.20;;;17.42;;
55575;SDS011;41437;45.478;9.116;2023-11-19T03:03:37;24.77;;;17.17;;
55575;SDS011;41437;45.478;9.116;2023-11-19T03:06:40;27.23;;;17.73;;
55575;SDS011;41437;45.478;9.116;2023-11-19T03:09:42;26.75;;;18.02;;
55575;SDS011;41437;45.478;9.116;2023-11-19T03:12:44;25.10;;;18.50;;
55575;SDS011;41437;45.478;9.116;2023-11-19T03:15:47;25.10;;;16.95;;
55575;SDS011;41437;45.478;9.116;2023-11-19T03:18:49;24.92;;;17.23;;
55575;SDS011;41437;45.478;9.116;2023-11-19T03:21:50;26.08;;;18.23;;
55575;SDS011;41437;45.478;9.116;2023-11-19T03:24:52;26.88;;;18.52;;
55575;SDS011;41437;45.478;9.116;2023-11-19T03:27:54;24.40;;;17.27;;
55575;SDS011;41437;45.478;9.116;2023-11-19T03:30:56;26.98;;;18.35;;
55575;SDS011;41437;45.478;9.116;2023-11-19T03:33:58;26.67;;;18.45;;
55575;SDS011;41437;45.478;9.116;2023-11-19T03:37:00;26.42;;;18.15;;
55575;SDS011;41437;45.478;9.116;2023-11-19T03:40:03;25.75;;;17.17;;
55575;SDS011;41437;45.478;9.116;2023-11-19T03:43:06;26.67;;;18.65;;
55575;SDS011;41437;45.478;9.116;2023-11-19T03:46:17;23.88;;;17.70;;
55575;SDS011;41437;45.478;9.116;2023-11-19T03:49:19;23.77;;;17.17;;
55575;SDS011;41437;45.478;9.116;2023-11-19T03:52:20;26.88;;;16.50;;
55575;SDS011;41437;45.478;9.116;2023-11-19T03:55:22;22.40;;;16.15;;
55575;SDS011;41437;45.478;9.116;2023-11-19T03:58:23;23.50;;;16.35;;
55575;SDS011;41437;45.478;9.116;2023-11-19T04:01:26;25.20;;;15.68;;
55575;SDS011;41437;45.478;9.116;2023-11-19T04:04:28;23.65;;;15.65;;
55575;SDS011;41437;45.478;9.116;2023-11-19T04:07:30;24.45;;;16.13;;
55575;SDS011;41437;45.478;9.116;2023-11-19T04:10:32;21.80;;;15.90;;
55575;SDS011;41437;45.478;9.116;2023-11-19T04:13:34;23.35;;;15.98;;
55575;SDS011;41437;45.478;9.116;2023-11-19T04:16:37;22.90;;;16.27;;
55575;SDS011;41437;45.478;9.116;2023-11-19T04:19:38;24.63;;;16.83;;
55575;SDS011;41437;45.478;9.116;2023-11-19T04:22:41;23.17;;;17.08;;
55575;SDS011;41437;45.478;9.116;2023-11-19T04:25:43;22.63;;;16.42;;
55575;SDS011;41437;45.478;9.116;2023-11-19T04:28:45;22.35;;;16.95;;
55575;SDS011;41437;45.478;9.116;2023-11-19T04:31:48;22.88;;;16.55;;
55575;SDS011;41437;45.478;9.116;2023-11-19T04:34:49;21.30;;;15.52;;
55575;SDS011;41437;45.478;9.116;2023-11-19T04:37:51;23.15;;;15.07;;
55575;SDS011;41437;45.478;9.116;2023-11-19T04:40:52;25.48;;;16.17;;
55575;SDS011;41437;45.478;9.116;2023-11-19T04:43:54;23.80;;;14.93;;
55575;SDS011;41437;45.478;9.116;2023-11-19T04:46:57;18.88;;;14.77;;
55575;SDS011;41437;45.478;9.116;2023-11-19T04:49:59;22.95;;;14.77;;
55575;SDS011;41437;45.478;9.116;2023-11-19T04:53:01;18.50;;;13.93;;
55575;SDS011;41437;45.478;9.116;2023-11-19T04:56:07;19.77;;;14.90;;
55575;SDS011;41437;45.478;9.116;2023-11-19T04:59:09;24.10;;;15.45;;
55575;SDS011;41437;45.478;9.116;2023-11-19T05:02:12;22.73;;;13.88;;
55575;SDS011;41437;45.478;9.116;2023-11-19T05:05:16;19.90;;;13.60;;
55575;SDS011;41437;45.478;9.116;2023-11-19T05:08:18;22.45;;;14.35;;
55575;SDS011;41437;45.478;9.116;2023-11-19T05:11:20;18.45;;;13.65;;
55575;SDS011;41437;45.478;9.116;2023-11-19T05:14:21;18.33;;;13.32;;
55575;SDS011;41437;45.478;9.116;2023-11-19T05:17:26;21.42;;;14.27;;
55575;SDS011;41437;45.478;9.116;2023-11-19T05:20:27;21.63;;;13.93;;
55575;SDS011;41437;45.478;9.116;2023-11-19T05:23:29;22.23;;;13.80;;
55575;SDS011;41437;45.478;9.116;2023-11-19T05:26:30;19.00;;;13.70;;
55575;SDS011;41437;45.478;9.116;2023-11-19T05:29:32;20.08;;;13.55;;
55575;SDS011;41437;45.478;9.116;2023-11-19T05:32:35;19.08;;;13.55;;
55575;SDS011;41437;45.478;9.116;2023-11-19T05:35:37;19.52;;;13.70;;
55575;SDS011;41437;45.478;9.116;2023-11-19T05:38:38;20.10;;;13.90;;
55575;SDS011;41437;45.478;9.116;2023-11-19T05:41:40;19.20;;;13.70;;
55575;SDS011;41437;45.478;9.116;2023-11-19T05:44:42;20.08;;;13.20;;
55575;SDS011;41437;45.478;9.116;2023-11-19T05:47:45;17.55;;;13.02;;
55575;SDS011;41437;45.478;9.116;2023-11-19T05:50:46;19.58;;;12.77;;
55575;SDS011;41437;45.478;9.116;2023-11-19T05:53:49;19.30;;;12.65;;
55575;SDS011;41437;45.478;9.116;2023-11-19T05:56:51;18.85;;;12.77;;
55575;SDS011;41437;45.478;9.116;2023-11-19T05:59:54;18.38;;;13.32;;
55575;SDS011;41437;45.478;9.116;2023-11-19T06:02:57;18.08;;;12.30;;
55575;SDS011;41437;45.478;9.116;2023-11-19T06:05:59;18.92;;;13.10;;
55575;SDS011;41437;45.478;9.116;2023-11-19T06:09:00;16.60;;;12.50;;
55575;SDS011;41437;45.478;9.116;2023-11-19T06:12:06;18.30;;;12.35;;
55575;SDS011;41437;45.478;9.116;2023-11-19T06:15:08;18.88;;;12.68;;
55575;SDS011;41437;45.478;9.116;2023-11-19T06:18:11;15.93;;;12.32;;
55575;SDS011;41437;45.478;9.116;2023-11-19T06:21:14;18.85;;;13.18;;
55575;SDS011;41437;45.478;9.116;2023-11-19T06:24:16;18.77;;;12.77;;
55575;SDS011;41437;45.478;9.116;2023-11-19T06:27:17;17.33;;;12.90;;
55575;SDS011;41437;45.478;9.116;2023-11-19T06:30:19;17.88;;;12.68;;
55575;SDS011;41437;45.478;9.116;2023-11-19T06:33:23;19.33;;;13.18;;
55575;SDS011;41437;45.478;9.116;2023-11-19T06:36:24;18.27;;;12.73;;
55575;SDS011;41437;45.478;9.116;2023-11-19T06:39:26;17.40;;;12.25;;
55575;SDS011;41437;45.478;9.116;2023-11-19T06:42:28;15.98;;;11.85;;
55575;SDS011;41437;45.478;9.116;2023-11-19T06:45:29;17.50;;;12.38;;
55575;SDS011;41437;45.478;9.116;2023-11-19T06:48:33;18.63;;;12.27;;
55575;SDS011;41437;45.478;9.116;2023-11-19T06:51:34;18.77;;;12.15;;
55575;SDS011;41437;45.478;9.116;2023-11-19T06:54:36;17.95;;;11.90;;
55575;SDS011;41437;45.478;9.116;2023-11-19T06:57:39;17.07;;;11.80;;
55575;SDS011;41437;45.478;9.116;2023-11-19T07:00:40;17.08;;;11.57;;
55575;SDS011;41437;45.478;9.116;2023-11-19T07:03:44;14.57;;;10.80;;
55575;SDS011;41437;45.478;9.116;2023-11-19T07:06:46;14.80;;;9.40;;
55575;SDS011;41437;45.478;9.116;2023-11-19T07:09:48;15.20;;;10.43;;
55575;SDS011;41437;45.478;9.116;2023-11-19T07:12:50;15.75;;;10.18;;
55575;SDS011;41437;45.478;9.116;2023-11-19T07:15:51;14.40;;;9.85;;
55575;SDS011;41437;45.478;9.116;2023-11-19T07:18:54;15.70;;;9.77;;
55575;SDS011;41437;45.478;9.116;2023-11-19T07:21:56;15.05;;;10.93;;
55575;SDS011;41437;45.478;9.116;2023-11-19T07:24:57;14.07;;;9.98;;
55575;SDS011;41437;45.478;9.116;2023-11-19T07:27:59;14.10;;;9.88;;
55575;SDS011;41437;45.478;9.116;2023-11-19T07:31:01;14.00;;;9.63;;
55575;SDS011;41437;45.478;9.116;2023-11-19T07:34:04;14.30;;;9.25;;
55575;SDS011;41437;45.478;9.116;2023-11-19T07:37:06;15.90;;;9.85;;
55575;SDS011;41437;45.478;9.116;2023-11-19T07:40:08;14.27;;;9.57;;
55575;SDS011;41437;45.478;9.116;2023-11-19T07:43:12;14.50;;;9.07;;
55575;SDS011;41437;45.478;9.116;2023-11-19T07:46:13;14.38;;;9.50;;
55575;SDS011;41437;45.478;9.116;2023-11-19T07:49:17;15.02;;;9.73;;
55575;SDS011;41437;45.478;9.116;2023-11-19T07:52:19;14.73;;;9.57;;
55575;SDS011;41437;45.478;9.116;2023-11-19T07:55:21;13.50;;;9.70;;
55575;SDS011;41437;45.478;9.116;2023-11-19T07:58:22;12.15;;;8.32;;
55575;SDS011;41437;45.478;9.116;2023-11-19T08:01:24;12.10;;;8.50;;
55575;SDS011;41437;45.478;9.116;2023-11-19T08:04:27;11.55;;;8.70;;
55575;SDS011;41437;45.478;9.116;2023-11-19T08:07:29;15.07;;;8.67;;
55575;SDS011;41437;45.478;9.116;2023-11-19T08:10:30;15.50;;;9.68;;
55575;SDS011;41437;45.478;9.116;2023-11-19T08:13:33;13.50;;;9.70;;
55575;SDS011;41437;45.478;9.116;2023-11-19T08:16:34;13.88;;;9.63;;
55575;SDS011;41437;45.478;9.116;2023-11-19T08:19:39;14.77;;;10.65;;
55575;SDS011;41437;45.478;9.116;2023-11-19T08:22:40;14.65;;;10.15;;
55575;SDS011;41437;45.478;9.116;2023-11-19T08:25:42;12.75;;;9.32;;
55575;SDS011;41437;45.478;9.116;2023-11-19T08:28:44;16.08;;;9.77;;
55575;SDS011;41437;45.478;9.116;2023-11-19T08:31:46;15.15;;;10.15;;
55575;SDS011;41437;45.478;9.116;2023-11-19T08:34:49;15.27;;;10.10;;
55575;SDS011;41437;45.478;9.116;2023-11-19T08:37:50;14.33;;;9.67;;
55575;SDS011;41437;45.478;9.116;2023-11-19T08:40:53;14.63;;;10.07;;
55575;SDS011;41437;45.478;9.116;2023-11-19T08:43:59;11.30;;;9.55;;
55575;SDS011;41437;45.478;9.116;2023-11-19T08:47:01;14.07;;;9.98;;
55575;SDS011;41437;45.478;9.116;2023-11-19T08:50:04;11.98;;;9.93;;
55575;SDS011;41437;45.478;9.116;2023-11-19T08:53:06;14.00;;;10.15;;
55575;SDS011;41437;45.478;9.116;2023-11-19T08:56:08;13.57;;;9.68;;
55575;SDS011;41437;45.478;9.116;2023-11-19T08:59:10;13.75;;;10.35;;
55575;SDS011;41437;45.478;9.116;2023-11-19T09:02:11;13.05;;;9.27;;
55575;SDS011;41437;45.478;9.116;2023-11-19T09:05:15;13.45;;;9.43;;
55575;SDS011;41437;45.478;9.116;2023-11-19T09:08:16;14.30;;;9.63;;
55575;SDS011;41437;45.478;9.116;2023-11-19T09:11:18;12.27;;;9.20;;
55575;SDS011;41437;45.478;9.116;2023-11-19T09:14:19;12.82;;;8.60;;
55575;SDS011;41437;45.478;9.116;2023-11-19T09:17:24;17.10;;;8.88;;
55575;SDS011;41437;45.478;9.116;2023-11-19T09:20:27;13.18;;;8.88;;
55575;SDS011;41437;45.478;9.116;2023-11-19T09:23:32;13.18;;;9.10;;
55575;SDS011;41437;45.478;9.116;2023-11-19T09:26:39;12.50;;;9.00;;
55575;SDS011;41437;45.478;9.116;2023-11-19T09:29:41;13.02;;;9.27;;
55575;SDS011;41437;45.478;9.116;2023-11-19T09:32:46;12.02;;;9.02;;
55575;SDS011;41437;45.478;9.116;2023-11-19T09:35:48;11.57;;;9.60;;
55575;SDS011;41437;45.478;9.116;2023-11-19T09:38:51;12.68;;;9.57;;
55575;SDS011;41437;45.478;9.116;2023-11-19T09:41:52;13.75;;;9.98;;
55575;SDS011;41437;45.478;9.116;2023-11-19T09:44:54;13.55;;;9.48;;
55575;SDS011;41437;45.478;9.116;2023-11-19T09:47:58;14.15;;;10.10;;
55575;SDS011;41437;45.478;9.116;2023-11-19T09:51:03;14.27;;;10.48;;
55575;SDS011;41437;45.478;9.116;2023-11-19T09:57:07;12.98;;;8.93;;
55575;SDS011;41437;45.478;9.116;2023-11-19T10:00:11;12.70;;;9.95;;
55575;SDS011;41437;45.478;9.116;2023-11-19T10:03:16;14.80;;;9.93;;
55575;SDS011;41437;45.478;9.116;2023-11-19T10:06:20;13.75;;;9.88;;
55575;SDS011;41437;45.478;9.116;2023-11-19T10:09:22;13.25;;;10.32;;
55575;SDS011;41437;45.478;9.116;2023-11-19T10:12:24;14.30;;;10.77;;
55575;SDS011;41437;45.478;9.116;2023-11-19T10:15:26;14.50;;;10.80;;
55575;SDS011;41437;45.478;9.116;2023-11-19T10:18:27;14.95;;;10.63;;
55575;SDS011;41437;45.478;9.116;2023-11-19T10:21:33;13.77;;;10.52;;
55575;SDS011;41437;45.478;9.116;2023-11-19T10:24:35;14.68;;;10.93;;
55575;SDS011;41437;45.478;9.116;2023-11-19T10:27:38;15.03;;;10.37;;
55575;SDS011;41437;45.478;9.116;2023-11-19T10:30:40;15.52;;;11.15;;
55575;SDS011;41437;45.478;9.116;2023-11-19T10:33:42;16.67;;;10.90;;
55575;SDS011;41437;45.478;9.116;2023-11-19T10:36:46;15.40;;;10.65;;
55575;SDS011;41437;45.478;9.116;2023-11-19T10:39:51;13.97;;;10.47;;
55575;SDS011;41437;45.478;9.116;2023-11-19T10:43:01;16.20;;;11.90;;
55575;SDS011;41437;45.478;9.116;2023-11-19T10:46:08;16.55;;;11.98;;
55575;SDS011;41437;45.478;9.116;2023-11-19T10:49:11;16.48;;;12.32;;
55575;SDS011;41437;45.478;9.116;2023-11-19T10:52:16;19.90;;;13.35;;
55575;SDS011;41437;45.478;9.116;2023-11-19T10:55:19;16.80;;;12.98;;
55575;SDS011;41437;45.478;9.116;2023-11-19T10:58:28;17.55;;;13.73;;
55575;SDS011;41437;45.478;9.116;2023-11-19T11:01:32;17.00;;;13.50;;
55575;SDS011;41437;45.478;9.116;2023-11-19T11:04:37;18.40;;;13.85;;
55575;SDS011;41437;45.478;9.116;2023-11-19T11:07:43;18.77;;;14.35;;
55575;SDS011;41437;45.478;9.116;2023-11-19T11:10:48;21.88;;;14.82;;
55575;SDS011;41437;45.478;9.116;2023-11-19T11:13:53;17.80;;;13.95;;
55575;SDS011;41437;45.478;9.116;2023-11-19T11:16:59;18.65;;;14.73;;
55575;SDS011;41437;45.478;9.116;2023-11-19T11:20:01;17.02;;;13.48;;
55575;SDS011;41437;45.478;9.116;2023-11-19T11:23:11;17.98;;;14.23;;
55575;SDS011;41437;45.478;9.116;2023-11-19T11:26:32;18.83;;;14.55;;
55575;SDS011;41437;45.478;9.116;2023-11-19T11:29:52;17.60;;;13.55;;
55575;SDS011;41437;45.478;9.116;2023-11-19T11:33:06;19.95;;;12.98;;
55575;SDS011;41437;45.478;9.116;2023-11-19T11:36:19;16.55;;;13.23;;
55575;SDS011;41437;45.478;9.116;2023-11-19T11:39:24;16.52;;;13.15;;
55575;SDS011;41437;45.478;9.116;2023-11-19T11:42:34;16.58;;;12.60;;
55575;SDS011;41437;45.478;9.116;2023-11-19T11:45:36;15.88;;;11.98;;
55575;SDS011;41437;45.478;9.116;2023-11-19T11:48:40;16.65;;;12.25;;
55575;SDS011;41437;45.478;9.116;2023-11-19T11:51:57;15.77;;;11.70;;
55575;SDS011;41437;45.478;9.116;2023-11-19T11:55:04;17.50;;;12.25;;
55575;SDS011;41437;45.478;9.116;2023-11-19T11:58:08;17.30;;;12.13;;
55575;SDS011;41437;45.478;9.116;2023-11-19T12:01:10;15.43;;;11.20;;
55575;SDS011;41437;45.478;9.116;2023-11-19T12:04:20;17.20;;;12.25;;
55575;SDS011;41437;45.478;9.116;2023-11-19T12:07:22;16.77;;;11.57;;
55575;SDS011;41437;45.478;9.116;2023-11-19T12:10:26;16.53;;;11.73;;
55575;SDS011;41437;45.478;9.116;2023-11-19T12:13:47;15.90;;;12.27;;
55575;SDS011;41437;45.478;9.116;2023-11-19T12:17:03;18.25;;;13.02;;
55575;SDS011;41437;45.478;9.116;2023-11-19T12:20:05;15.18;;;11.70;;
55575;SDS011;41437;45.478;9.116;2023-11-19T12:23:08;17.80;;;11.50;;
55575;SDS011;41437;45.478;9.116;2023-11-19T12:26:21;16.38;;;10.45;;
55575;SDS011;41437;45.478;9.116;2023-11-19T12:29:41;14.20;;;11.10;;
55575;SDS011;41437;45.478;9.116;2023-11-19T12:32:44;14.68;;;11.00;;
55575;SDS011;41437;45.478;9.116;2023-11-19T12:35:47;15.65;;;11.68;;
55575;SDS011;41437;45.478;9.116;2023-11-19T12:38:49;13.98;;;10.88;;
55575;SDS011;41437;45.478;9.116;2023-11-19T12:41:53;14.15;;;10.93;;
55575;SDS011;41437;45.478;9.116;2023-11-19T12:44:54;14.65;;;11.30;;
55575;SDS011;41437;45.478;9.116;2023-11-19T12:48:04;15.70;;;10.73;;
55575;SDS011;41437;45.478;9.116;2023-11-19T12:51:06;14.90;;;10.55;;
55575;SDS011;41437;45.478;9.116;2023-11-19T12:54:08;13.70;;;10.98;;
55575;SDS011;41437;45.478;9.116;2023-11-19T12:57:11;10.98;;;8.45;;
55575;SDS011;41437;45.478;9.116;2023-11-19T13:00:18;14.80;;;9.98;;
55575;SDS011;41437;45.478;9.116;2023-11-19T13:03:29;13.88;;;9.68;;
55575;SDS011;41437;45.478;9.116;2023-11-19T13:06:31;12.90;;;9.50;;
55575;SDS011;41437;45.478;9.116;2023-11-19T13:09:33;14.70;;;10.35;;
55575;SDS011;41437;45.478;9.116;2023-11-19T13:12:36;13.75;;;10.07;;
55575;SDS011;41437;45.478;9.116;2023-11-19T13:15:37;13.77;;;10.77;;
55575;SDS011;41437;45.478;9.116;2023-11-19T13:18:40;14.35;;;10.25;;
55575;SDS011;41437;45.478;9.116;2023-11-19T13:21:41;12.90;;;10.07;;
55575;SDS011;41437;45.478;9.116;2023-11-19T13:24:46;13.40;;;10.73;;
55575;SDS011;41437;45.478;9.116;2023-11-19T13:27:49;13.88;;;10.32;;
55575;SDS011;41437;45.478;9.116;2023-11-19T13:30:50;14.83;;;10.20;;
55575;SDS011;41437;45.478;9.116;2023-11-19T13:33:53;14.38;;;10.50;;
55575;SDS011;41437;45.478;9.116;2023-11-19T13:36:55;15.82;;;10.45;;
55575;SDS011;41437;45.478;9.116;2023-11-19T13:39:56;13.68;;;10.52;;
55575;SDS011;41437;45.478;9.116;2023-11-19T13:42:59;15.60;;;11.68;;
55575;SDS011;41437;45.478;9.116;2023-11-19T13:46:01;14.23;;;10.63;;
55575;SDS011;41437;45.478;9.116;2023-11-19T13:49:03;17.25;;;11.13;;
55575;SDS011;41437;45.478;9.116;2023-11-19T13:52:04;14.43;;;10.82;;
55575;SDS011;41437;45.478;9.116;2023-11-19T13:55:07;13.77;;;11.05;;
55575;SDS011;41437;45.478;9.116;2023-11-19T14:01:13;13.10;;;10.77;;
55575;SDS011;41437;45.478;9.116;2023-11-19T14:04:15;16.33;;;11.18;;
55575;SDS011;41437;45.478;9.116;2023-11-19T14:07:16;15.23;;;11.68;;
55575;SDS011;41437;45.478;9.116;2023-11-19T14:10:18;14.68;;;12.57;;
55575;SDS011;41437;45.478;9.116;2023-11-19T14:13:21;14.40;;;11.32;;
55575;SDS011;41437;45.478;9.116;2023-11-19T14:16:26;17.08;;;11.98;;
55575;SDS011;41437;45.478;9.116;2023-11-19T14:19:27;17.63;;;11.98;;
55575;SDS011;41437;45.478;9.116;2023-11-19T14:22:31;14.40;;;11.90;;
55575;SDS011;41437;45.478;9.116;2023-11-19T14:25:34;16.53;;;12.90;;
55575;SDS011;41437;45.478;9.116;2023-11-19T14:28:37;16.80;;;12.63;;
55575;SDS011;41437;45.478;9.116;2023-11-19T14:34:41;14.90;;;11.80;;
55575;SDS011;41437;45.478;9.116;2023-11-19T14:37:43;15.02;;;11.70;;
55575;SDS011;41437;45.478;9.116;2023-11-19T14:40:46;16.05;;;11.95;;
55575;SDS011;41437;45.478;9.116;2023-11-19T14:43:49;17.40;;;12.02;;
55575;SDS011;41437;45.478;9.116;2023-11-19T14:46:51;15.85;;;11.40;;
55575;SDS011;41437;45.478;9.116;2023-11-19T14:49:52;15.57;;;12.18;;
55575;SDS011;41437;45.478;9.116;2023-11-19T14:52:54;18.77;;;12.15;;
55575;SDS011;41437;45.478;9.116;2023-11-19T14:55:55;14.25;;;11.63;;
55575;SDS011;41437;45.478;9.116;2023-11-19T14:58:58;16.05;;;11.63;;
55575;SDS011;41437;45.478;9.116;2023-11-19T15:02:00;14.17;;;11.53;;
55575;SDS011;41437;45.478;9.116;2023-11-19T15:05:02;16.33;;;11.98;;
55575;SDS011;41437;45.478;9.116;2023-11-19T15:08:04;15.70;;;11.32;;
55575;SDS011;41437;45.478;9.116;2023-11-19T15:11:06;15.77;;;11.25;;
55575;SDS011;41437;45.478;9.116;2023-11-19T15:14:10;15.40;;;11.73;;
55575;SDS011;41437;45.478;9.116;2023-11-19T15:17:14;15.93;;;11.73;;
55575;SDS011;41437;45.478;9.116;2023-11-19T15:20:16;17.95;;;11.80;;
55575;SDS011;41437;45.478;9.116;2023-11-19T15:23:18;16.58;;;11.57;;
55575;SDS011;41437;45.478;9.116;2023-11-19T15:26:20;15.90;;;10.65;;
55575;SDS011;41437;45.478;9.116;2023-11-19T15:29:23;16.05;;;11.75;;
55575;SDS011;41437;45.478;9.116;2023-11-19T15:32:25;18.57;;;11.80;;
55575;SDS011;41437;45.478;9.116;2023-11-19T15:35:26;16.20;;;11.40;;
55575;SDS011;41437;45.478;9.116;2023-11-19T15:38:28;17.45;;;11.18;;
55575;SDS011;41437;45.478;9.116;2023-11-19T15:41:29;16.20;;;11.70;;
55575;SDS011;41437;45.478;9.116;2023-11-19T15:44:33;16.42;;;12.63;;
55575;SDS011;41437;45.478;9.116;2023-11-19T15:47:34;21.38;;;16.27;;
55575;SDS011;41437;45.478;9.116;2023-11-19T15:50:36;18.92;;;16.13;;
55575;SDS011;41437;45.478;9.116;2023-11-19T15:53:38;20.60;;;15.90;;
55575;SDS011;41437;45.478;9.116;2023-11-19T15:56:39;20.38;;;17.15;;
55575;SDS011;41437;45.478;9.116;2023-11-19T15:59:42;21.30;;;17.02;;
55575;SDS011;41437;45.478;9.116;2023-11-19T16:02:44;22.07;;;16.93;;
55575;SDS011;41437;45.478;9.116;2023-11-19T16:05:45;22.00;;;16.40;;
55575;SDS011;41437;45.478;9.116;2023-11-19T16:08:48;21.35;;;17.17;;
55575;SDS011;41437;45.478;9.116;2023-11-19T16:11:51;23.58;;;18.88;;
55575;SDS011;41437;45.478;9.116;2023-11-19T16:14:54;22.65;;;17.20;;
55575;SDS011;41437;45.478;9.116;2023-11-19T16:17:55;20.50;;;17.63;;
55575;SDS011;41437;45.478;9.116;2023-11-19T16:20:57;25.08;;;18.33;;
55575;SDS011;41437;45.478;9.116;2023-11-19T16:23:59;23.40;;;18.02;;
55575;SDS011;41437;45.478;9.116;2023-11-19T16:27:02;25.60;;;18.50;;
55575;SDS011;41437;45.478;9.116;2023-11-19T16:30:06;22.02;;;17.80;;
55575;SDS011;41437;45.478;9.116;2023-11-19T16:33:08;22.17;;;17.83;;
55575;SDS011;41437;45.478;9.116;2023-11-19T16:36:11;24.02;;;19.00;;
55575;SDS011;41437;45.478;9.116;2023-11-19T16:39:13;23.35;;;19.25;;
55575;SDS011;41437;45.478;9.116;2023-11-19T16:42:15;26.33;;;19.67;;
55575;SDS011;41437;45.478;9.116;2023-11-19T16:45:21;23.15;;;19.40;;
55575;SDS011;41437;45.478;9.116;2023-11-19T16:48:23;23.50;;;19.17;;
55575;SDS011;41437;45.478;9.116;2023-11-19T16:51:25;24.17;;;18.58;;
55575;SDS011;41437;45.478;9.116;2023-11-19T16:54:26;26.48;;;19.80;;
55575;SDS011;41437;45.478;9.116;2023-11-19T16:57:28;26.13;;;19.48;;
55575;SDS011;41437;45.478;9.116;2023-11-19T17:00:32;24.27;;;18.70;;
55575;SDS011;41437;45.478;9.116;2023-11-19T17:03:34;27.67;;;19.33;;
55575;SDS011;41437;45.478;9.116;2023-11-19T17:06:37;23.10;;;18.88;;
55575;SDS011;41437;45.478;9.116;2023-11-19T17:09:39;24.98;;;18.33;;
55575;SDS011;41437;45.478;9.116;2023-11-19T17:12:41;24.85;;;18.42;;
55575;SDS011;41437;45.478;9.116;2023-11-19T17:15:44;23.98;;;18.58;;
55575;SDS011;41437;45.478;9.116;2023-11-19T17:18:46;25.00;;;19.52;;
55575;SDS011;41437;45.478;9.116;2023-11-19T17:21:48;23.38;;;18.40;;
55575;SDS011;41437;45.478;9.116;2023-11-19T17:24:49;24.15;;;18.83;;
55575;SDS011;41437;45.478;9.116;2023-11-19T17:27:51;24.17;;;17.65;;
55575;SDS011;41437;45.478;9.116;2023-11-19T17:30:54;24.33;;;17.67;;
55575;SDS011;41437;45.478;9.116;2023-11-19T17:33:55;23.10;;;17.73;;
55575;SDS011;41437;45.478;9.116;2023-11-19T17:36:57;25.60;;;19.45;;
55575;SDS011;41437;45.478;9.116;2023-11-19T17:39:59;24.58;;;19.13;;
55575;SDS011;41437;45.478;9.116;2023-11-19T17:43:01;26.48;;;19.02;;
55575;SDS011;41437;45.478;9.116;2023-11-19T17:46:04;23.17;;;18.98;;
55575;SDS011;41437;45.478;9.116;2023-11-19T17:49:06;26.40;;;18.60;;
55575;SDS011;41437;45.478;9.116;2023-11-19T17:52:07;27.45;;;21.38;;
55575;SDS011;41437;45.478;9.116;2023-11-19T17:55:10;25.60;;;20.00;;
55575;SDS011;41437;45.478;9.116;2023-11-19T17:58:13;25.35;;;19.77;;
55575;SDS011;41437;45.478;9.116;2023-11-19T18:01:16;26.08;;;19.10;;
55575;SDS011;41437;45.478;9.116;2023-11-19T18:04:18;25.85;;;19.73;;
55575;SDS011;41437;45.478;9.116;2023-11-19T18:07:20;28.98;;;20.20;;